sensor_id;sensor_type;location;lat;lon;timestamp;pressure;altitude;pressure_sealevel;temperature;humidity
46303;BME280;32029;51.358;5.628;2023-02-01T00:00:25;101760.25;;;7.91;85.77
46303;BME280;32029;51.358;5.628;2023-02-01T00:02:52;101814.41;;;8.24;85.31
46303;BME280;32029;51.358;5.628;2023-02-01T00:05:19;101831.22;;;8.29;84.47
46303;BME280;32029;51.358;5.628;2023-02-01T00:07:49;101835.28;;;8.25;84.16
46303;BME280;32029;51.358;5.628;2023-02-01T00:10:16;101834.00;;;8.20;84.00
46303;BME280;32029;51.358;5.628;2023-02-01T00:12:44;101800.63;;;8.06;84.00
46303;BME280;32029;51.358;5.628;2023-02-01T00:15:10;101823.06;;;8.20;83.46
46303;BME280;32029;51.358;5.628;2023-02-01T00:17:37;101772.75;;;7.83;83.34
46303;BME280;32029;51.358;5.628;2023-02-01T00:20:04;101796.22;;;7.96;82.92
46303;BME280;32029;51.358;5.628;2023-02-01T00:22:31;101823.34;;;8.07;82.80
46303;BME280;32029;51.358;5.628;2023-02-01T00:24:58;101821.06;;;8.02;82.92
46303;BME280;32029;51.358;5.628;2023-02-01T00:27:24;101815.63;;;7.93;82.77
46303;BME280;32029;51.358;5.628;2023-02-01T00:29:51;101757.13;;;7.56;82.70
46303;BME280;32029;51.358;5.628;2023-02-01T00:32:20;101771.66;;;7.76;83.07
46303;BME280;32029;51.358;5.628;2023-02-01T00:34:46;101777.25;;;7.84;83.18
46303;BME280;32029;51.358;5.628;2023-02-01T00:37:13;101751.53;;;7.58;83.24
46303;BME280;32029;51.358;5.628;2023-02-01T00:39:40;101775.38;;;7.75;82.95
46303;BME280;32029;51.358;5.628;2023-02-01T00:42:06;101795.09;;;7.69;83.32
46303;BME280;32029;51.358;5.628;2023-02-01T00:44:33;101789.78;;;7.58;83.65
46303;BME280;32029;51.358;5.628;2023-02-01T00:47:01;101790.47;;;7.60;83.58
46303;BME280;32029;51.358;5.628;2023-02-01T00:49:28;101777.28;;;7.46;83.78
46303;BME280;32029;51.358;5.628;2023-02-01T00:51:55;101781.72;;;7.47;84.07
46303;BME280;32029;51.358;5.628;2023-02-01T00:54:22;101781.16;;;7.43;84.07
46303;BME280;32029;51.358;5.628;2023-02-01T00:56:49;101768.22;;;7.26;84.59
46303;BME280;32029;51.358;5.628;2023-02-01T00:59:15;101810.47;;;7.31;85.05
46303;BME280;32029;51.358;5.628;2023-02-01T01:01:42;101805.00;;;7.31;84.49
46303;BME280;32029;51.358;5.628;2023-02-01T01:04:09;101813.34;;;7.30;84.59
46303;BME280;32029;51.358;5.628;2023-02-01T01:06:36;101811.91;;;7.26;85.07
46303;BME280;32029;51.358;5.628;2023-02-01T01:09:05;101816.47;;;7.25;85.10
46303;BME280;32029;51.358;5.628;2023-02-01T01:11:34;101716.16;;;6.69;84.78
46303;BME280;32029;51.358;5.628;2023-02-01T01:14:03;101775.38;;;7.07;85.30
46303;BME280;32029;51.358;5.628;2023-02-01T01:16:31;101773.34;;;7.00;85.20
46303;BME280;32029;51.358;5.628;2023-02-01T01:18:58;101770.31;;;6.83;85.56
46303;BME280;32029;51.358;5.628;2023-02-01T01:21:26;101802.41;;;7.10;85.88
46303;BME280;32029;51.358;5.628;2023-02-01T01:23:53;101791.72;;;6.98;85.76
46303;BME280;32029;51.358;5.628;2023-02-01T01:26:22;101766.69;;;6.73;86.05
46303;BME280;32029;51.358;5.628;2023-02-01T01:28:50;101809.53;;;7.02;86.18
46303;BME280;32029;51.358;5.628;2023-02-01T01:31:18;101801.50;;;7.00;86.50
46303;BME280;32029;51.358;5.628;2023-02-01T01:33:52;101727.44;;;6.45;86.90
46303;BME280;32029;51.358;5.628;2023-02-01T01:36:20;101799.75;;;6.90;87.19
46303;BME280;32029;51.358;5.628;2023-02-01T01:38:48;101711.75;;;6.37;87.46
46303;BME280;32029;51.358;5.628;2023-02-01T01:41:18;101807.94;;;6.90;87.43
46303;BME280;32029;51.358;5.628;2023-02-01T01:46:27;101768.38;;;6.65;87.74
46303;BME280;32029;51.358;5.628;2023-02-01T01:49:20;101798.03;;;6.88;88.02
46303;BME280;32029;51.358;5.628;2023-02-01T01:51:52;101743.63;;;6.47;88.21
46303;BME280;32029;51.358;5.628;2023-02-01T01:56:57;101811.25;;;6.83;88.53
46303;BME280;32029;51.358;5.628;2023-02-01T01:59:26;101751.78;;;6.37;88.62
46303;BME280;32029;51.358;5.628;2023-02-01T02:01:53;101806.91;;;6.71;89.07
46303;BME280;32029;51.358;5.628;2023-02-01T02:04:21;101807.88;;;6.70;89.38
46303;BME280;32029;51.358;5.628;2023-02-01T02:06:57;101828.16;;;6.77;89.24
46303;BME280;32029;51.358;5.628;2023-02-01T02:09:27;101817.25;;;6.77;89.38
46303;BME280;32029;51.358;5.628;2023-02-01T02:11:53;101811.88;;;6.66;89.46
46303;BME280;32029;51.358;5.628;2023-02-01T02:14:22;101819.38;;;6.74;89.73
46303;BME280;32029;51.358;5.628;2023-02-01T02:22:46;101796.09;;;6.70;90.30
46303;BME280;32029;51.358;5.628;2023-02-01T02:33:59;101767.19;;;6.48;90.90
46303;BME280;32029;51.358;5.628;2023-02-01T02:39:55;101775.13;;;6.60;91.03
46303;BME280;32029;51.358;5.628;2023-02-01T02:42:35;101764.34;;;6.59;91.35
46303;BME280;32029;51.358;5.628;2023-02-01T02:48:37;101752.88;;;6.55;90.98
46303;BME280;32029;51.358;5.628;2023-02-01T02:54:35;101655.56;;;6.06;91.01
46303;BME280;32029;51.358;5.628;2023-02-01T02:57:26;101739.78;;;6.59;91.48
46303;BME280;32029;51.358;5.628;2023-02-01T03:00:16;101754.34;;;6.69;90.92
46303;BME280;32029;51.358;5.628;2023-02-01T03:03:03;101696.25;;;6.28;90.89
46303;BME280;32029;51.358;5.628;2023-02-01T03:05:50;101765.81;;;6.73;90.73
46303;BME280;32029;51.358;5.628;2023-02-01T03:08:22;101766.41;;;6.76;90.96
46303;BME280;32029;51.358;5.628;2023-02-01T03:11:09;101758.66;;;6.81;90.24
46303;BME280;32029;51.358;5.628;2023-02-01T03:13:48;101756.69;;;6.83;89.94
46303;BME280;32029;51.358;5.628;2023-02-01T03:16:31;101750.78;;;6.88;89.78
46303;BME280;32029;51.358;5.628;2023-02-01T03:21:41;101745.06;;;6.91;89.59
46303;BME280;32029;51.358;5.628;2023-02-01T03:24:38;101749.66;;;6.91;89.45
46303;BME280;32029;51.358;5.628;2023-02-01T03:27:14;101692.28;;;6.52;89.53
46303;BME280;32029;51.358;5.628;2023-02-01T03:32:37;101671.56;;;6.39;89.71
46303;BME280;32029;51.358;5.628;2023-02-01T03:35:29;101752.19;;;6.82;89.45
46303;BME280;32029;51.358;5.628;2023-02-01T03:38:07;101752.34;;;6.81;89.86
46303;BME280;32029;51.358;5.628;2023-02-01T03:40:39;101759.81;;;6.79;89.81
46303;BME280;32029;51.358;5.628;2023-02-01T03:43:12;101764.69;;;6.75;89.94
46303;BME280;32029;51.358;5.628;2023-02-01T03:45:44;101758.22;;;6.76;89.92
46303;BME280;32029;51.358;5.628;2023-02-01T03:48:13;101711.50;;;6.50;90.15
46303;BME280;32029;51.358;5.628;2023-02-01T03:50:47;101748.34;;;6.75;90.00
46303;BME280;32029;51.358;5.628;2023-02-01T03:53:18;101672.00;;;6.35;90.22
46303;BME280;32029;51.358;5.628;2023-02-01T03:55:46;101654.91;;;6.23;89.89
46303;BME280;32029;51.358;5.628;2023-02-01T03:58:19;101746.75;;;6.82;89.86
46303;BME280;32029;51.358;5.628;2023-02-01T04:03:19;101726.16;;;6.59;89.88
46303;BME280;32029;51.358;5.628;2023-02-01T04:05:46;101749.19;;;6.76;89.78
46303;BME280;32029;51.358;5.628;2023-02-01T04:08:12;101741.13;;;6.74;89.86
46303;BME280;32029;51.358;5.628;2023-02-01T04:10:39;101726.75;;;6.62;90.12
46303;BME280;32029;51.358;5.628;2023-02-01T04:13:06;101714.13;;;6.52;89.72
46303;BME280;32029;51.358;5.628;2023-02-01T04:15:33;101709.47;;;6.43;89.65
46303;BME280;32029;51.358;5.628;2023-02-01T04:18:02;101726.16;;;6.59;90.07
46303;BME280;32029;51.358;5.628;2023-02-01T04:20:28;101730.06;;;6.66;89.73
46303;BME280;32029;51.358;5.628;2023-02-01T04:22:55;101738.25;;;6.66;89.99
46303;BME280;32029;51.358;5.628;2023-02-01T04:25:22;101704.75;;;6.45;90.04
46303;BME280;32029;51.358;5.628;2023-02-01T04:27:48;101601.69;;;5.88;89.81
46303;BME280;32029;51.358;5.628;2023-02-01T04:30:15;101713.25;;;6.61;89.80
46303;BME280;32029;51.358;5.628;2023-02-01T04:32:42;101654.63;;;6.26;89.87
46303;BME280;32029;51.358;5.628;2023-02-01T04:35:09;101648.56;;;6.13;90.05
46303;BME280;32029;51.358;5.628;2023-02-01T04:37:36;101724.72;;;6.55;90.20
46303;BME280;32029;51.358;5.628;2023-02-01T04:40:10;101645.69;;;6.05;90.30
46303;BME280;32029;51.358;5.628;2023-02-01T04:42:37;101720.53;;;6.51;90.38
46303;BME280;32029;51.358;5.628;2023-02-01T04:45:04;101723.84;;;6.45;89.98
46303;BME280;32029;51.358;5.628;2023-02-01T04:47:31;101696.09;;;6.30;90.24
46303;BME280;32029;51.358;5.628;2023-02-01T04:49:57;101733.19;;;6.52;90.17
46303;BME280;32029;51.358;5.628;2023-02-01T04:52:24;101740.38;;;6.53;90.12
46303;BME280;32029;51.358;5.628;2023-02-01T04:54:51;101743.22;;;6.51;90.01
46303;BME280;32029;51.358;5.628;2023-02-01T04:57:20;101734.91;;;6.53;89.65
46303;BME280;32029;51.358;5.628;2023-02-01T04:59:47;101687.34;;;6.26;89.91
46303;BME280;32029;51.358;5.628;2023-02-01T05:02:13;101701.41;;;6.31;89.65
46303;BME280;32029;51.358;5.628;2023-02-01T05:04:40;101750.25;;;6.54;89.81
46303;BME280;32029;51.358;5.628;2023-02-01T05:07:08;101717.75;;;6.31;89.59
46303;BME280;32029;51.358;5.628;2023-02-01T05:09:35;101740.47;;;6.51;89.55
46303;BME280;32029;51.358;5.628;2023-02-01T05:12:01;101748.66;;;6.51;89.71
46303;BME280;32029;51.358;5.628;2023-02-01T05:14:47;101744.38;;;6.49;89.94
46303;BME280;32029;51.358;5.628;2023-02-01T05:17:14;101747.22;;;6.47;89.81
46303;BME280;32029;51.358;5.628;2023-02-01T05:19:41;101752.56;;;6.49;89.88
46303;BME280;32029;51.358;5.628;2023-02-01T05:22:08;101756.28;;;6.48;89.45
46303;BME280;32029;51.358;5.628;2023-02-01T05:24:35;101743.94;;;6.44;89.97
46303;BME280;32029;51.358;5.628;2023-02-01T05:27:02;101729.41;;;6.33;89.44
46303;BME280;32029;51.358;5.628;2023-02-01T05:29:28;101744.91;;;6.43;89.53
46303;BME280;32029;51.358;5.628;2023-02-01T05:31:55;101659.84;;;5.99;89.56
46303;BME280;32029;51.358;5.628;2023-02-01T05:34:23;101734.16;;;6.41;89.69
46303;BME280;32029;51.358;5.628;2023-02-01T05:36:50;101676.94;;;6.10;90.02
46303;BME280;32029;51.358;5.628;2023-02-01T05:39:16;101678.38;;;6.05;90.34
46303;BME280;32029;51.358;5.628;2023-02-01T05:41:44;101730.84;;;6.37;89.89
46303;BME280;32029;51.358;5.628;2023-02-01T05:44:11;101723.38;;;6.39;90.19
46303;BME280;32029;51.358;5.628;2023-02-01T05:46:38;101680.97;;;6.16;90.11
46303;BME280;32029;51.358;5.628;2023-02-01T05:49:05;101731.88;;;6.46;90.29
46303;BME280;32029;51.358;5.628;2023-02-01T05:51:31;101636.97;;;5.90;89.96
46303;BME280;32029;51.358;5.628;2023-02-01T05:53:59;101738.06;;;6.58;89.98
46303;BME280;32029;51.358;5.628;2023-02-01T05:56:26;101703.44;;;6.39;90.27
46303;BME280;32029;51.358;5.628;2023-02-01T05:58:53;101737.97;;;6.59;89.81
46303;BME280;32029;51.358;5.628;2023-02-01T06:01:19;101750.31;;;6.73;89.69
46303;BME280;32029;51.358;5.628;2023-02-01T06:03:46;101747.03;;;6.79;89.44
46303;BME280;32029;51.358;5.628;2023-02-01T06:06:13;101702.06;;;6.64;89.67
46303;BME280;32029;51.358;5.628;2023-02-01T06:08:39;101727.38;;;6.85;89.79
46303;BME280;32029;51.358;5.628;2023-02-01T06:11:07;101710.25;;;6.74;89.53
46303;BME280;32029;51.358;5.628;2023-02-01T06:13:34;101748.66;;;6.92;89.73
46303;BME280;32029;51.358;5.628;2023-02-01T06:16:02;101730.09;;;6.85;89.19
46303;BME280;32029;51.358;5.628;2023-02-01T06:18:29;101688.28;;;6.56;89.55
46303;BME280;32029;51.358;5.628;2023-02-01T06:20:58;101746.34;;;6.97;89.25
46303;BME280;32029;51.358;5.628;2023-02-01T06:23:29;101670.19;;;6.55;89.41
46303;BME280;32029;51.358;5.628;2023-02-01T06:26:05;101713.41;;;6.69;89.18
46303;BME280;32029;51.358;5.628;2023-02-01T06:28:32;101713.25;;;6.71;89.36
46303;BME280;32029;51.358;5.628;2023-02-01T06:31:04;101760.13;;;7.05;89.58
46303;BME280;32029;51.358;5.628;2023-02-01T06:33:33;101751.25;;;7.03;89.20
46303;BME280;32029;51.358;5.628;2023-02-01T06:36:02;101686.84;;;6.61;89.29
46303;BME280;32029;51.358;5.628;2023-02-01T06:38:30;101744.94;;;7.02;89.11
46303;BME280;32029;51.358;5.628;2023-02-01T06:40:57;101756.56;;;7.04;89.56
46303;BME280;32029;51.358;5.628;2023-02-01T06:43:26;101679.97;;;6.67;89.49
46303;BME280;32029;51.358;5.628;2023-02-01T06:45:58;101694.59;;;6.66;89.14
46303;BME280;32029;51.358;5.628;2023-02-01T06:48:25;101762.59;;;7.08;89.15
46303;BME280;32029;51.358;5.628;2023-02-01T06:50:52;101761.72;;;7.07;89.60
46303;BME280;32029;51.358;5.628;2023-02-01T06:53:18;101715.88;;;6.72;89.00
46303;BME280;32029;51.358;5.628;2023-02-01T06:55:55;101758.53;;;6.93;89.67
46303;BME280;32029;51.358;5.628;2023-02-01T06:58:23;101711.38;;;6.61;89.45
46303;BME280;32029;51.358;5.628;2023-02-01T07:00:50;101779.25;;;7.05;89.18
46303;BME280;32029;51.358;5.628;2023-02-01T07:03:16;101780.09;;;7.05;89.22
46303;BME280;32029;51.358;5.628;2023-02-01T07:05:43;101696.91;;;6.61;89.38
46303;BME280;32029;51.358;5.628;2023-02-01T07:08:10;101752.97;;;7.04;89.35
46303;BME280;32029;51.358;5.628;2023-02-01T07:10:37;101758.97;;;6.98;89.48
46303;BME280;32029;51.358;5.628;2023-02-01T07:13:04;101761.00;;;7.05;89.46
46303;BME280;32029;51.358;5.628;2023-02-01T07:15:31;101764.59;;;7.06;89.38
46303;BME280;32029;51.358;5.628;2023-02-01T07:17:57;101763.03;;;7.03;89.31
46303;BME280;32029;51.358;5.628;2023-02-01T07:20:24;101754.53;;;6.97;89.38
46303;BME280;32029;51.358;5.628;2023-02-01T07:23:00;101777.53;;;7.04;88.92
46303;BME280;32029;51.358;5.628;2023-02-01T07:25:27;101764.31;;;6.99;89.25
46303;BME280;32029;51.358;5.628;2023-02-01T07:27:53;101687.97;;;6.59;89.23
46303;BME280;32029;51.358;5.628;2023-02-01T07:30:20;101712.72;;;6.67;89.12
46303;BME280;32029;51.358;5.628;2023-02-01T07:32:47;101717.44;;;6.65;89.31
46303;BME280;32029;51.358;5.628;2023-02-01T07:35:13;101755.66;;;6.84;89.13
46303;BME280;32029;51.358;5.628;2023-02-01T07:37:40;101772.19;;;6.93;89.43
46303;BME280;32029;51.358;5.628;2023-02-01T07:40:07;101770.31;;;6.93;89.23
46303;BME280;32029;51.358;5.628;2023-02-01T07:42:34;101764.16;;;6.91;89.45
46303;BME280;32029;51.358;5.628;2023-02-01T07:45:01;101761.13;;;6.84;89.16
46303;BME280;32029;51.358;5.628;2023-02-01T07:47:29;101707.75;;;6.51;89.26
46303;BME280;32029;51.358;5.628;2023-02-01T07:49:55;101733.63;;;6.57;89.23
46303;BME280;32029;51.358;5.628;2023-02-01T07:52:22;101782.53;;;6.89;89.19
46303;BME280;32029;51.358;5.628;2023-02-01T07:54:49;101727.59;;;6.53;88.99
46303;BME280;32029;51.358;5.628;2023-02-01T07:57:16;101789.16;;;6.96;89.14
46303;BME280;32029;51.358;5.628;2023-02-01T07:59:43;101771.88;;;6.86;88.78
46303;BME280;32029;51.358;5.628;2023-02-01T08:02:28;101791.44;;;6.91;88.84
46303;BME280;32029;51.358;5.628;2023-02-01T08:04:54;101782.50;;;6.79;88.87
46303;BME280;32029;51.358;5.628;2023-02-01T08:07:21;101752.03;;;6.65;89.08
46303;BME280;32029;51.358;5.628;2023-02-01T08:09:48;101789.13;;;6.86;88.94
46303;BME280;32029;51.358;5.628;2023-02-01T08:12:15;101741.38;;;6.61;89.20
46303;BME280;32029;51.358;5.628;2023-02-01T08:14:41;101788.84;;;6.90;88.92
46303;BME280;32029;51.358;5.628;2023-02-01T08:17:08;101799.75;;;6.90;88.99
46303;BME280;32029;51.358;5.628;2023-02-01T08:19:35;101765.78;;;6.63;89.12
46303;BME280;32029;51.358;5.628;2023-02-01T08:22:02;101799.75;;;6.90;89.09
46303;BME280;32029;51.358;5.628;2023-02-01T08:24:33;101803.81;;;6.95;88.93
46303;BME280;32029;51.358;5.628;2023-02-01T08:27:01;101800.66;;;7.00;89.10
46303;BME280;32029;51.358;5.628;2023-02-01T08:29:28;101766.41;;;6.76;88.74
46303;BME280;32029;51.358;5.628;2023-02-01T08:31:55;101799.50;;;7.02;88.78
46303;BME280;32029;51.358;5.628;2023-02-01T08:34:22;101794.75;;;6.95;88.72
46303;BME280;32029;51.358;5.628;2023-02-01T08:36:48;101763.69;;;6.76;88.61
46303;BME280;32029;51.358;5.628;2023-02-01T08:39:15;101783.97;;;6.93;88.42
46303;BME280;32029;51.358;5.628;2023-02-01T08:41:42;101709.03;;;6.47;88.27
46303;BME280;32029;51.358;5.628;2023-02-01T08:44:28;101732.09;;;6.74;88.69
46303;BME280;32029;51.358;5.628;2023-02-01T08:46:55;101793.03;;;7.03;88.63
46303;BME280;32029;51.358;5.628;2023-02-01T08:49:22;101705.78;;;6.53;88.67
46303;BME280;32029;51.358;5.628;2023-02-01T08:51:48;101803.53;;;7.18;88.84
46303;BME280;32029;51.358;5.628;2023-02-01T08:54:15;101765.00;;;7.01;88.84
46303;BME280;32029;51.358;5.628;2023-02-01T08:56:42;101737.00;;;6.90;88.23
46303;BME280;32029;51.358;5.628;2023-02-01T08:59:08;101758.28;;;7.15;88.37
46303;BME280;32029;51.358;5.628;2023-02-01T09:01:35;101772.50;;;7.28;88.30
46303;BME280;32029;51.358;5.628;2023-02-01T09:04:02;101806.72;;;7.52;87.88
46303;BME280;32029;51.358;5.628;2023-02-01T09:06:28;101719.94;;;7.07;87.64
46303;BME280;32029;51.358;5.628;2023-02-01T09:08:55;101806.59;;;7.63;87.57
46303;BME280;32029;51.358;5.628;2023-02-01T09:11:22;101797.09;;;7.67;87.20
46303;BME280;32029;51.358;5.628;2023-02-01T09:13:49;101738.34;;;7.34;87.49
46303;BME280;32029;51.358;5.628;2023-02-01T09:16:15;101763.47;;;7.57;87.16
46303;BME280;32029;51.358;5.628;2023-02-01T09:18:42;101701.97;;;7.33;86.92
46303;BME280;32029;51.358;5.628;2023-02-01T09:21:09;101712.72;;;7.45;86.77
46303;BME280;32029;51.358;5.628;2023-02-01T09:23:35;101714.72;;;7.52;86.51
46303;BME280;32029;51.358;5.628;2023-02-01T09:26:03;101773.78;;;7.82;86.43
46303;BME280;32029;51.358;5.628;2023-02-01T09:28:30;101776.81;;;7.89;86.40
46303;BME280;32029;51.358;5.628;2023-02-01T09:30:58;101694.91;;;7.50;86.92
46303;BME280;32029;51.358;5.628;2023-02-01T09:33:26;101703.81;;;7.62;86.59
46303;BME280;32029;51.358;5.628;2023-02-01T09:36:00;101753.59;;;8.03;86.36
46303;BME280;32029;51.358;5.628;2023-02-01T09:38:28;101777.00;;;8.15;85.97
46303;BME280;32029;51.358;5.628;2023-02-01T09:40:56;101714.28;;;7.76;85.45
46303;BME280;32029;51.358;5.628;2023-02-01T09:48:38;101731.03;;;7.91;85.72
46303;BME280;32029;51.358;5.628;2023-02-01T09:51:16;101712.41;;;7.77;85.98
46303;BME280;32029;51.358;5.628;2023-02-01T09:53:48;101782.16;;;8.28;85.88
46303;BME280;32029;51.358;5.628;2023-02-01T09:56:24;101790.06;;;8.41;85.72
46303;BME280;32029;51.358;5.628;2023-02-01T09:59:23;101789.72;;;8.53;85.12
46303;BME280;32029;51.358;5.628;2023-02-01T10:01:53;101759.69;;;8.44;84.32
46303;BME280;32029;51.358;5.628;2023-02-01T10:04:19;101781.47;;;8.63;84.35
46303;BME280;32029;51.358;5.628;2023-02-01T10:07:57;101776.09;;;8.71;84.44
46303;BME280;32029;51.358;5.628;2023-02-01T10:15:35;101710.53;;;8.52;84.26
46303;BME280;32029;51.358;5.628;2023-02-01T10:26:32;101765.38;;;9.05;83.29
46303;BME280;32029;51.358;5.628;2023-02-01T10:29:03;101763.03;;;9.11;82.82
46303;BME280;32029;51.358;5.628;2023-02-01T10:31:35;101765.06;;;9.08;82.90
46303;BME280;32029;51.358;5.628;2023-02-01T10:34:21;101776.75;;;9.28;82.97
46303;BME280;32029;51.358;5.628;2023-02-01T10:36:53;101763.56;;;9.32;82.62
46303;BME280;32029;51.358;5.628;2023-02-01T10:39:22;101751.59;;;9.51;82.10
46303;BME280;32029;51.358;5.628;2023-02-01T10:41:49;101787.34;;;9.85;81.00
46303;BME280;32029;51.358;5.628;2023-02-01T10:44:24;101725.84;;;9.62;80.16
46303;BME280;32029;51.358;5.628;2023-02-01T10:46:52;101765.69;;;10.00;79.13
46303;BME280;32029;51.358;5.628;2023-02-01T10:49:28;101779.88;;;10.21;78.92
46303;BME280;32029;51.358;5.628;2023-02-01T10:52:26;101777.84;;;10.23;78.46
46303;BME280;32029;51.358;5.628;2023-02-01T10:55:27;101773.78;;;10.27;78.35
46303;BME280;32029;51.358;5.628;2023-02-01T10:58:14;101769.38;;;10.35;77.72
46303;BME280;32029;51.358;5.628;2023-02-01T11:01:06;101716.22;;;10.10;77.14
46303;BME280;32029;51.358;5.628;2023-02-01T11:04:09;101759.66;;;10.48;76.64
46303;BME280;32029;51.358;5.628;2023-02-01T11:10:04;101732.06;;;10.50;76.02
46303;BME280;32029;51.358;5.628;2023-02-01T11:13:22;101765.22;;;10.65;74.58
46303;BME280;32029;51.358;5.628;2023-02-01T11:16:11;101759.72;;;10.65;73.71
46303;BME280;32029;51.358;5.628;2023-02-01T11:18:58;101756.63;;;10.60;73.30
46303;BME280;32029;51.358;5.628;2023-02-01T11:22:01;101722.06;;;10.41;73.98
46303;BME280;32029;51.358;5.628;2023-02-01T11:24:48;101722.09;;;10.49;73.29
46303;BME280;32029;51.358;5.628;2023-02-01T11:27:37;101739.28;;;10.51;73.29
46303;BME280;32029;51.358;5.628;2023-02-01T11:30:32;101723.13;;;10.48;73.38
46303;BME280;32029;51.358;5.628;2023-02-01T11:33:26;101737.41;;;10.60;73.19
46303;BME280;32029;51.358;5.628;2023-02-01T11:36:26;101676.81;;;10.45;72.84
46303;BME280;32029;51.358;5.628;2023-02-01T11:39:18;101731.81;;;10.69;71.40
46303;BME280;32029;51.358;5.628;2023-02-01T11:42:18;101703.81;;;10.58;72.23
46303;BME280;32029;51.358;5.628;2023-02-01T11:45:25;101711.88;;;10.67;72.02
46303;BME280;32029;51.358;5.628;2023-02-01T11:48:15;101706.03;;;10.62;70.85
46303;BME280;32029;51.358;5.628;2023-02-01T11:57:38;101721.78;;;10.52;72.07
46303;BME280;32029;51.358;5.628;2023-02-01T12:03:47;101716.16;;;10.62;72.43
46303;BME280;32029;51.358;5.628;2023-02-01T12:06:47;101711.53;;;10.62;71.65
46303;BME280;32029;51.358;5.628;2023-02-01T12:13:08;101659.44;;;10.28;72.41
46303;BME280;32029;51.358;5.628;2023-02-01T12:16:17;101700.34;;;10.55;72.18
46303;BME280;32029;51.358;5.628;2023-02-01T12:41:18;101690.97;;;10.66;71.03
46303;BME280;32029;51.358;5.628;2023-02-01T12:44:44;101646.78;;;10.35;71.17
46303;BME280;32029;51.358;5.628;2023-02-01T12:47:46;101683.75;;;10.65;71.76
46303;BME280;32029;51.358;5.628;2023-02-01T12:50:45;101702.28;;;10.63;71.81
46303;BME280;32029;51.358;5.628;2023-02-01T12:53:56;101670.19;;;10.64;71.58
46303;BME280;32029;51.358;5.628;2023-02-01T13:00:16;101678.59;;;10.62;72.45
46303;BME280;32029;51.358;5.628;2023-02-01T13:03:29;101662.34;;;10.69;72.29
46303;BME280;32029;51.358;5.628;2023-02-01T13:06:04;101675.16;;;10.68;72.49
46303;BME280;32029;51.358;5.628;2023-02-01T13:08:44;101643.56;;;10.48;72.27
46303;BME280;32029;51.358;5.628;2023-02-01T13:11:42;101665.25;;;10.75;71.98
46303;BME280;32029;51.358;5.628;2023-02-01T13:14:32;101688.59;;;10.79;71.87
46303;BME280;32029;51.358;5.628;2023-02-01T13:17:04;101670.06;;;10.73;72.25
46303;BME280;32029;51.358;5.628;2023-02-01T13:19:49;101668.72;;;10.86;72.10
46303;BME280;32029;51.358;5.628;2023-02-01T13:22:29;101618.72;;;10.49;71.84
46303;BME280;32029;51.358;5.628;2023-02-01T13:25:04;101581.97;;;10.34;72.20
46303;BME280;32029;51.358;5.628;2023-02-01T13:27:37;101630.91;;;10.63;72.18
46303;BME280;32029;51.358;5.628;2023-02-01T13:40:45;101661.53;;;10.93;72.54
46303;BME280;32029;51.358;5.628;2023-02-01T13:43:29;101620.66;;;10.73;72.84
46303;BME280;32029;51.358;5.628;2023-02-01T13:46:02;101648.66;;;11.01;72.45
46303;BME280;32029;51.358;5.628;2023-02-01T13:48:53;101676.63;;;11.13;72.17
46303;BME280;32029;51.358;5.628;2023-02-01T13:51:40;101639.69;;;10.91;72.33
46303;BME280;32029;51.358;5.628;2023-02-01T13:54:16;101679.72;;;11.10;72.80
46303;BME280;32029;51.358;5.628;2023-02-01T13:56:50;101686.06;;;11.11;72.60
46303;BME280;32029;51.358;5.628;2023-02-01T14:02:35;101689.66;;;11.11;72.49
46303;BME280;32029;51.358;5.628;2023-02-01T14:05:03;101687.97;;;11.10;72.28
46303;BME280;32029;51.358;5.628;2023-02-01T14:07:31;101653.28;;;10.85;72.91
46303;BME280;32029;51.358;5.628;2023-02-01T14:09:58;101653.41;;;10.75;72.86
46303;BME280;32029;51.358;5.628;2023-02-01T14:12:47;101688.13;;;11.00;72.87
46303;BME280;32029;51.358;5.628;2023-02-01T14:15:26;101705.47;;;11.01;73.31
46303;BME280;32029;51.358;5.628;2023-02-01T14:17:54;101688.66;;;11.04;73.18
46303;BME280;32029;51.358;5.628;2023-02-01T14:20:41;101693.25;;;11.03;72.81
46303;BME280;32029;51.358;5.628;2023-02-01T14:23:15;101655.63;;;10.71;72.94
46303;BME280;32029;51.358;5.628;2023-02-01T14:25:44;101683.47;;;10.85;73.63
46303;BME280;32029;51.358;5.628;2023-02-01T14:28:23;101701.50;;;10.95;73.17
46303;BME280;32029;51.358;5.628;2023-02-01T14:30:51;101702.19;;;10.89;74.07
46303;BME280;32029;51.358;5.628;2023-02-01T14:33:20;101715.75;;;10.99;73.97
46303;BME280;32029;51.358;5.628;2023-02-01T14:36:03;101651.16;;;10.62;73.94
46303;BME280;32029;51.358;5.628;2023-02-01T14:38:31;101716.06;;;10.96;73.91
46303;BME280;32029;51.358;5.628;2023-02-01T14:41:34;101711.09;;;10.91;74.17
46303;BME280;32029;51.358;5.628;2023-02-01T14:47:04;101721.06;;;10.92;74.52
46303;BME280;32029;51.358;5.628;2023-02-01T14:49:55;101688.78;;;10.86;74.37
46303;BME280;32029;51.358;5.628;2023-02-01T14:52:29;101670.22;;;10.72;74.54
46303;BME280;32029;51.358;5.628;2023-02-01T14:55:03;101705.09;;;10.96;74.75
46303;BME280;32029;51.358;5.628;2023-02-01T14:57:34;101615.78;;;10.43;74.40
46303;BME280;32029;51.358;5.628;2023-02-01T15:00:30;101711.28;;;10.98;74.49
46303;BME280;32029;51.358;5.628;2023-02-01T15:05:39;101716.91;;;10.88;74.87
46303;BME280;32029;51.358;5.628;2023-02-01T15:08:15;101712.47;;;10.87;74.52
46303;BME280;32029;51.358;5.628;2023-02-01T15:10:46;101717.78;;;10.81;75.13
46303;BME280;32029;51.358;5.628;2023-02-01T15:13:27;101688.72;;;10.62;74.76
46303;BME280;32029;51.358;5.628;2023-02-01T15:16:12;101646.81;;;10.43;74.90
46303;BME280;32029;51.358;5.628;2023-02-01T15:18:39;101732.50;;;10.79;74.89
46303;BME280;32029;51.358;5.628;2023-02-01T15:21:14;101700.22;;;10.65;74.95
46303;BME280;32029;51.358;5.628;2023-02-01T15:23:41;101675.09;;;10.44;75.04
46303;BME280;32029;51.358;5.628;2023-02-01T15:26:08;101701.91;;;10.58;75.20
46303;BME280;32029;51.358;5.628;2023-02-01T15:28:34;101708.44;;;10.57;75.53